Time;durP1;ratioP1;P1;durP2;ratioP2;P2;SDS_P1;SDS_P2;PMS_P1;PMS_P2;Temp;Humidity;BMP_temperature;BMP_pressure;BME280_temperature;BME280_humidity;BME280_pressure;Samples;Min_cycle;Max_cycle;Signal;HPM_P1;HPM_P2
2022/08/21 00:09:33;;;;;;;;;;;;;;;;;;;;;
2022/08/21 00:33:10;;;;;;;;;;;;;;;;;;;;;
2022/08/21 03:26:37;;;;;;;;;;;;;;;;;;;;;
2022/08/21 03:29:54;;;;;;;;;;;14.50;99.90;;;;;;5791610;24;19920;-79
2022/08/21 03:33:07;;;;;;;;;;;;;;;;;;;;;
2022/08/21 03:40:00;;;;;;;;;;;;;;;;;;;;;
2022/08/21 03:46:58;;;;;;;;;;;14.40;99.90;;;;;;6038718;23;19998;-79
2022/08/21 03:58:02;;;;;;;;;;;14.60;99.90;;;;;;6068708;23;19924;-77
2022/08/21 04:22:35;;;;;;;;;;;;;;;;;;;;;
2022/08/21 04:32:38;;;;;;;;;;;;;;;;;;;;;
2022/08/21 05:18:16;;;;;;;;;;;14.80;99.90;;;;;;6037519;23;19922;-76
2022/08/21 05:24:49;;;;;;;;;;;15.00;99.90;;;;;;5795157;24;19999;-76
2022/08/21 05:38:13;;;;;;;;;;;15.40;99.90;;;;;;5740557;25;19940;-76
2022/08/21 10:01:43;;;;;;;;;;;25.90;99.90;;;;;;6304091;22;19954;-78
2022/08/21 10:04:12;;;;;;;;;;;25.70;99.90;;;;;;6305708;22;20244;-82
2022/08/21 10:23:12;;;;;;;;;;;25.80;99.90;;;;;;6311610;22;19917;-81
2022/08/21 10:25:58;;;;;;;;;;;25.70;99.90;;;;;;6288307;22;19919;-79
2022/08/21 10:28:30;;;;;;;;;;;25.60;99.90;;;;;;6313248;22;19918;-75
2022/08/21 10:41:45;;;;;;;;;;;26.20;99.70;;;;;;6316095;22;20382;-78
2022/08/21 10:44:43;;;;;;;;;;;;;;;;;;;;;
2022/08/21 10:47:42;;;;;;;;;;;26.00;99.90;;;;;;6280469;22;20397;-82
2022/08/21 10:50:33;;;;;;;;;;;25.80;99.80;;;;;;6255321;22;20238;-78
2022/08/21 11:03:08;;;;;;;;;;;26.60;99.90;;;;;;6308570;22;19932;-72
2022/08/21 11:31:20;;;;;;;;;;;26.50;96.80;;;;;;6269918;22;19940;-72
2022/08/21 11:37:45;;;;;;;;;;;26.70;96.90;;;;;;6213827;23;19923;-70
2022/08/21 11:47:28;;;;;;;;;;;26.50;96.80;;;;;;6094544;23;20332;-72
2022/08/21 11:49:56;;;;;;;;;;;26.20;96.80;;;;;;6086252;23;21099;-73
2022/08/21 11:52:41;;;;;;;;;;;25.80;96.80;;;;;;6206284;23;20353;-78
2022/08/21 11:58:35;;;;;;;;;;;25.60;97.30;;;;;;6214995;23;19950;-73
2022/08/21 12:01:12;;;;;;;;;;;25.20;95.40;;;;;;6186671;23;19966;-74
2022/08/21 12:07:41;;;;;;;;;;;25.20;95.70;;;;;;6203256;23;20257;-73
2022/08/21 12:13:30;;;;;;;;;;;25.60;95.80;;;;;;6215047;23;19915;-71
2022/08/21 12:16:13;;;;;;;;;;;25.70;95.30;;;;;;6188521;23;19923;-72
2022/08/21 12:18:42;;;;;;;;;;;25.80;96.00;;;;;;6188793;23;19916;-74
2022/08/21 12:21:22;;;;;;;;;;;25.80;95.80;;;;;;6188948;23;20319;-74
2022/08/21 12:24:08;;;;;;;;;;;25.80;96.20;;;;;;6188658;23;19919;-72
2022/08/21 12:27:15;;;;;;;;;;;25.60;95.80;;;;;;6167355;23;19919;-72
2022/08/21 12:30:03;;;;;;;;;;;25.50;96.70;;;;;;6140419;23;19924;-78
2022/08/21 12:33:20;;;;;;;;;;;25.50;96.30;;;;;;6187772;23;20327;-73
2022/08/21 12:42:20;;;;;;;;;;;25.20;95.50;;;;;;6028861;23;20389;-77
2022/08/21 12:44:57;;;;;;;;;;;25.30;95.20;;;;;;6174718;23;19923;-74
2022/08/21 12:47:42;;;;;;;;;;;25.40;95.50;;;;;;6163071;23;19923;-72
2022/08/21 12:50:24;;;;;;;;;;;25.50;96.40;;;;;;6188699;23;19920;-70
2022/08/21 12:53:14;;;;;;;;;;;25.60;95.80;;;;;;6215049;23;19920;-75
2022/08/21 12:56:04;;;;;;;;;;;25.60;96.20;;;;;;6204125;23;19966;-69
2022/08/21 12:58:31;;;;;;;;;;;25.50;95.80;;;;;;6164704;23;19927;-73
2022/08/21 13:01:01;;;;;;;;;;;25.20;95.30;;;;;;6163409;23;20328;-71
2022/08/21 13:03:27;;;;;;;;;;;25.10;95.80;;;;;;6214571;23;19915;-72
2022/08/21 13:05:54;;;;;;;;;;;25.10;95.90;;;;;;6187998;23;19934;-74
2022/08/21 13:08:20;;;;;;;;;;;25.10;95.80;;;;;;6188490;23;19927;-71
2022/08/21 13:10:47;;;;;;;;;;;25.30;96.40;;;;;;6188764;23;19974;-70
2022/08/21 13:13:21;;;;;;;;;;;25.20;95.60;;;;;;6188297;23;19927;-72
2022/08/21 13:15:47;;;;;;;;;;;25.20;96.10;;;;;;6187967;23;19928;-70
2022/08/21 13:18:20;;;;;;;;;;;25.20;96.60;;;;;;6213458;23;19923;-71
2022/08/21 13:20:46;;;;;;;;;;;25.30;96.70;;;;;;6163663;23;19920;-73
2022/08/21 13:23:21;;;;;;;;;;;25.40;95.90;;;;;;6188280;23;19920;-72
2022/08/21 13:25:46;;;;;;;;;;;25.50;95.70;;;;;;6213283;23;19990;-71
2022/08/21 13:28:14;;;;;;;;;;;25.40;95.70;;;;;;6188332;23;19958;-69
2022/08/21 13:30:44;;;;;;;;;;;25.20;95.80;;;;;;6163748;23;19920;-72
2022/08/21 13:33:12;;;;;;;;;;;25.10;96.30;;;;;;6187423;23;19926;-70
2022/08/21 13:35:56;;;;;;;;;;;25.20;95.90;;;;;;6213377;23;19920;-68
2022/08/21 13:38:29;;;;;;;;;;;25.20;95.20;;;;;;6213492;23;19924;-73
2022/08/21 13:41:15;;;;;;;;;;;25.20;95.60;;;;;;6188396;23;19927;-71
2022/08/21 13:43:46;;;;;;;;;;;25.30;96.70;;;;;;6186558;23;19927;-70
2022/08/21 13:46:13;;;;;;;;;;;25.30;96.10;;;;;;6214532;23;19920;-76
2022/08/21 13:48:39;;;;;;;;;;;25.20;96.30;;;;;;6190288;23;19979;-70
2022/08/21 13:51:04;;;;;;;;;;;25.20;96.60;;;;;;6215457;23;19919;-73
2022/08/21 13:53:33;;;;;;;;;;;25.20;95.50;;;;;;6189306;23;19984;-72
2022/08/21 13:55:59;;;;;;;;;;;25.20;96.20;;;;;;6216402;23;20228;-70
2022/08/21 13:58:51;;;;;;;;;;;25.20;96.50;;;;;;6216437;23;19920;-72
2022/08/21 14:01:30;;;;;;;;;;;25.30;96.50;;;;;;6183254;23;19924;-71
2022/08/21 14:03:59;;;;;;;;;;;25.20;97.40;;;;;;6189640;23;19927;-73
2022/08/21 14:06:26;;;;;;;;;;;25.10;96.80;;;;;;6214980;23;20227;-72
2022/08/21 14:08:55;;;;;;;;;;;24.70;97.80;;;;;;6189969;23;19963;-73
2022/08/21 14:11:21;;;;;;;;;;;24.70;98.20;;;;;;6189829;23;20369;-72
2022/08/21 14:14:09;;;;;;;;;;;24.90;98.80;;;;;;6164560;23;20440;-71
2022/08/21 14:16:44;;;;;;;;;;;25.10;98.10;;;;;;6188423;23;19995;-72
2022/08/21 14:19:20;;;;;;;;;;;25.20;98.40;;;;;;6189674;23;20338;-69
2022/08/21 14:21:46;;;;;;;;;;;25.20;97.90;;;;;;6188777;23;19920;-69
2022/08/21 14:24:13;;;;;;;;;;;25.20;98.00;;;;;;6188882;23;19920;-70
2022/08/21 14:26:51;;;;;;;;;;;25.20;98.10;;;;;;6189360;23;20346;-68
2022/08/21 14:29:18;;;;;;;;;;;25.20;97.70;;;;;;6163983;23;19935;-69
2022/08/21 14:31:49;;;;;;;;;;;25.30;96.50;;;;;;6183960;23;20225;-69
2022/08/21 14:34:16;;;;;;;;;;;25.40;97.10;;;;;;6209833;23;19971;-69
2022/08/21 14:36:42;;;;;;;;;;;25.50;96.00;;;;;;6184613;23;19920;-69
2022/08/21 14:39:08;;;;;;;;;;;25.60;95.50;;;;;;6185002;23;20328;-69
2022/08/21 14:41:34;;;;;;;;;;;25.70;94.60;;;;;;6184767;23;19963;-71
2022/08/21 14:43:59;;;;;;;;;;;25.60;95.20;;;;;;6184364;23;19920;-69
2022/08/21 14:46:27;;;;;;;;;;;25.70;95.10;;;;;;6159522;23;19920;-71
2022/08/21 14:48:53;;;;;;;;;;;25.80;95.20;;;;;;6159844;23;20332;-68
2022/08/21 14:51:19;;;;;;;;;;;25.80;94.90;;;;;;6184450;23;19927;-70
2022/08/21 14:53:45;;;;;;;;;;;25.90;95.00;;;;;;6159384;23;20394;-69
2022/08/21 14:56:11;;;;;;;;;;;25.90;94.50;;;;;;6185700;23;20114;-69
2022/08/21 14:58:42;;;;;;;;;;;26.10;94.90;;;;;;6135289;23;19920;-73
2022/08/21 15:01:09;;;;;;;;;;;26.10;94.80;;;;;;6183832;23;20246;-69
2022/08/21 15:03:35;;;;;;;;;;;26.20;93.90;;;;;;6158606;23;19920;-68
2022/08/21 15:06:02;;;;;;;;;;;26.30;94.50;;;;;;6183717;23;19916;-67
2022/08/21 15:08:28;;;;;;;;;;;26.40;94.60;;;;;;6185836;23;19921;-68
2022/08/21 15:10:54;;;;;;;;;;;26.30;93.20;;;;;;6185514;23;19927;-68
2022/08/21 15:13:20;;;;;;;;;;;26.30;93.80;;;;;;6183518;23;19956;-69
2022/08/21 15:15:47;;;;;;;;;;;26.10;92.40;;;;;;6183907;23;19928;-69
2022/08/21 15:18:13;;;;;;;;;;;25.90;93.20;;;;;;6159034;23;19947;-70
2022/08/21 15:20:39;;;;;;;;;;;26.10;92.90;;;;;;6183775;23;20327;-70
2022/08/21 15:26:47;;;;;;;;;;;26.40;92.10;;;;;;6124440;23;19967;-76
2022/08/21 15:42:22;;;;;;;;;;;27.00;90.70;;;;;;6214122;23;19916;-72
2022/08/21 15:45:02;;;;;;;;;;;26.80;90.60;;;;;;6163578;23;19991;-76
2022/08/21 15:47:35;;;;;;;;;;;26.70;90.70;;;;;;6164480;23;20294;-76
2022/08/21 15:50:07;;;;;;;;;;;26.70;90.90;;;;;;6188746;23;20261;-77
2022/08/21 15:52:33;;;;;;;;;;;26.10;91.10;;;;;;6163939;23;20303;-76
2022/08/21 15:55:05;;;;;;;;;;;26.10;91.00;;;;;;6190183;23;19916;-76
2022/08/21 15:58:03;;;;;;;;;;;26.10;90.90;;;;;;6187765;23;19915;-77
2022/08/21 16:00:37;;;;;;;;;;;26.20;91.20;;;;;;6188159;23;19923;-77
2022/08/21 16:03:04;;;;;;;;;;;26.20;90.90;;;;;;6188751;23;19955;-74
2022/08/21 16:05:29;;;;;;;;;;;26.20;90.90;;;;;;6189893;23;19915;-76
2022/08/21 16:07:55;;;;;;;;;;;26.20;91.00;;;;;;6188422;23;20408;-75
2022/08/21 16:10:22;;;;;;;;;;;26.10;91.20;;;;;;6189170;23;19920;-75
2022/08/21 16:12:49;;;;;;;;;;;25.70;91.60;;;;;;6188568;23;19916;-76
2022/08/21 16:15:16;;;;;;;;;;;25.40;92.30;;;;;;6214955;23;20314;-76
2022/08/21 16:17:47;;;;;;;;;;;25.00;92.80;;;;;;6188850;23;20327;-75
2022/08/21 16:23:40;;;;;;;;;;;24.20;93.70;;;;;;6199597;23;19923;-75
2022/08/21 16:26:06;;;;;;;;;;;23.80;94.40;;;;;;6188779;23;19916;-77
2022/08/21 16:28:33;;;;;;;;;;;23.60;95.00;;;;;;6188944;23;20335;-79
2022/08/21 16:30:59;;;;;;;;;;;23.40;95.80;;;;;;6163299;23;19920;-76
2022/08/21 16:33:28;;;;;;;;;;;23.20;96.20;;;;;;6213288;23;19930;-73
2022/08/21 16:36:12;;;;;;;;;;;23.00;96.50;;;;;;6213077;23;19986;-73
2022/08/21 16:46:00;;;;;;;;;;;22.60;98.10;;;;;;6100067;23;19917;-78
2022/08/21 16:48:27;;;;;;;;;;;22.50;98.10;;;;;;6075455;23;20344;-81
2022/08/21 16:54:08;;;;;;;;;;;22.30;98.60;;;;;;6152777;23;19924;-79
2022/08/21 16:57:10;;;;;;;;;;;22.20;98.80;;;;;;6101567;23;20338;-80
2022/08/21 16:59:47;;;;;;;;;;;22.20;99.30;;;;;;6127254;23;19924;-77
2022/08/21 17:02:26;;;;;;;;;;;22.10;99.60;;;;;;6127048;23;19939;-72
2022/08/21 17:05:03;;;;;;;;;;;22.00;99.50;;;;;;6152373;23;19927;-71
2022/08/21 17:07:29;;;;;;;;;;;21.90;99.50;;;;;;6127571;23;19924;-77
2022/08/21 17:09:57;;;;;;;;;;;21.90;99.90;;;;;;6127797;23;20009;-77
2022/08/21 17:12:26;;;;;;;;;;;21.80;99.90;;;;;;6133715;23;19917;-79
2022/08/21 17:14:52;;;;;;;;;;;21.80;99.90;;;;;;6132704;23;19963;-74
2022/08/21 17:34:10;;;;;;;;;;;21.10;99.90;;;;;;6222083;22;19920;-80
2022/08/21 17:36:50;;;;;;;;;;;21.00;99.90;;;;;;6197464;23;19928;-76
2022/08/21 17:46:00;;;;;;;;;;;20.80;99.90;;;;;;6221508;23;20360;-78
2022/08/21 18:21:26;;;;;;;;;;;19.80;99.90;;;;;;6217716;23;19915;-75
2022/08/21 18:23:54;;;;;;;;;;;19.70;99.90;;;;;;6166233;23;20255;-77
2022/08/21 18:26:27;;;;;;;;;;;19.60;99.90;;;;;;6190917;23;20227;-76
2022/08/21 18:28:53;;;;;;;;;;;19.50;99.90;;;;;;6165514;23;19916;-66
2022/08/21 18:31:19;;;;;;;;;;;19.40;99.90;;;;;;6163603;23;19983;-66
2022/08/21 18:33:48;;;;;;;;;;;19.30;99.90;;;;;;6189048;23;20010;-67
2022/08/21 18:36:14;;;;;;;;;;;19.30;99.90;;;;;;6187774;23;19919;-64
2022/08/21 18:38:39;;;;;;;;;;;19.20;99.90;;;;;;6188655;23;20345;-66
2022/08/21 18:41:06;;;;;;;;;;;19.10;99.90;;;;;;6163960;23;19931;-65
2022/08/21 18:43:31;;;;;;;;;;;19.00;99.90;;;;;;6188299;23;19927;-65
2022/08/21 18:45:57;;;;;;;;;;;18.90;99.90;;;;;;6161840;23;20332;-64
2022/08/21 18:48:22;;;;;;;;;;;18.90;99.90;;;;;;6187279;23;19959;-65
2022/08/21 18:50:48;;;;;;;;;;;18.80;99.90;;;;;;6162827;23;19947;-67
2022/08/21 18:53:14;;;;;;;;;;;18.80;99.90;;;;;;6163816;23;19924;-68
2022/08/21 18:55:41;;;;;;;;;;;18.70;99.90;;;;;;6163651;23;20019;-66
2022/08/21 18:58:07;;;;;;;;;;;18.70;99.90;;;;;;6188528;23;19927;-67
2022/08/21 19:00:36;;;;;;;;;;;18.60;99.90;;;;;;6163032;23;19999;-66
2022/08/21 19:03:03;;;;;;;;;;;18.60;99.90;;;;;;6163313;23;19919;-66
2022/08/21 19:05:28;;;;;;;;;;;18.50;99.90;;;;;;6188274;23;19991;-68
2022/08/21 19:07:54;;;;;;;;;;;18.50;99.90;;;;;;6188525;23;19958;-65
2022/08/21 19:10:20;;;;;;;;;;;18.40;99.90;;;;;;6188842;23;19920;-65
2022/08/21 19:12:47;;;;;;;;;;;18.30;99.90;;;;;;6188617;23;19924;-67
2022/08/21 19:15:14;;;;;;;;;;;18.20;99.90;;;;;;6214977;23;19920;-66
2022/08/21 19:17:41;;;;;;;;;;;18.20;99.90;;;;;;6163226;23;19955;-67
2022/08/21 19:20:11;;;;;;;;;;;18.10;99.90;;;;;;6164123;23;19923;-66
2022/08/21 19:22:36;;;;;;;;;;;18.10;99.90;;;;;;6188742;23;19920;-66
2022/08/21 19:25:03;;;;;;;;;;;18.00;99.90;;;;;;6188261;23;20339;-67
2022/08/21 19:27:28;;;;;;;;;;;17.90;99.90;;;;;;6215012;23;19916;-67
2022/08/21 19:41:00;;;;;;;;;;;17.70;99.90;;;;;;6065972;23;19967;-78
2022/08/21 19:43:56;;;;;;;;;;;17.60;99.90;;;;;;6089008;23;20359;-76
2022/08/21 19:46:35;;;;;;;;;;;17.60;99.90;;;;;;6155260;23;19916;-73
2022/08/21 19:49:02;;;;;;;;;;;17.50;99.90;;;;;;6204932;23;19915;-70
2022/08/21 19:51:28;;;;;;;;;;;17.50;99.90;;;;;;6187947;23;19920;-71
2022/08/21 19:53:55;;;;;;;;;;;17.50;99.90;;;;;;6188486;23;20314;-70
2022/08/21 19:56:22;;;;;;;;;;;17.40;99.90;;;;;;6214675;23;19919;-73
2022/08/21 19:59:37;;;;;;;;;;;17.40;99.90;;;;;;6190755;23;19973;-75
2022/08/21 20:02:08;;;;;;;;;;;17.30;99.90;;;;;;6103358;23;19982;-75
2022/08/21 20:04:34;;;;;;;;;;;17.20;99.90;;;;;;6127830;23;19916;-74
2022/08/21 20:07:32;;;;;;;;;;;17.20;99.90;;;;;;6127460;23;20003;-74
2022/08/21 20:09:58;;;;;;;;;;;17.20;99.90;;;;;;6127950;23;19970;-72
2022/08/21 20:12:23;;;;;;;;;;;17.20;99.90;;;;;;6108166;23;19956;-73
2022/08/21 20:15:00;;;;;;;;;;;17.10;99.90;;;;;;6213370;23;20307;-74
2022/08/21 20:17:29;;;;;;;;;;;17.10;99.90;;;;;;6191906;23;19966;-75
2022/08/21 20:20:09;;;;;;;;;;;16.90;99.90;;;;;;6168191;23;19986;-74
2022/08/21 20:22:37;;;;;;;;;;;17.00;99.90;;;;;;6216462;23;19920;-73
2022/08/21 20:25:11;;;;;;;;;;;17.00;99.90;;;;;;6192931;23;19924;-73
2022/08/21 20:27:37;;;;;;;;;;;17.00;99.90;;;;;;6193128;23;19958;-72
2022/08/21 20:30:04;;;;;;;;;;;17.00;99.90;;;;;;6218741;23;20281;-72
2022/08/21 20:32:30;;;;;;;;;;;16.90;99.90;;;;;;6192847;23;19916;-71
2022/08/21 20:34:55;;;;;;;;;;;16.90;99.90;;;;;;6192988;23;20038;-72
2022/08/21 20:37:21;;;;;;;;;;;16.90;99.90;;;;;;6218559;23;19920;-71
2022/08/21 20:39:46;;;;;;;;;;;16.90;99.90;;;;;;6218678;23;19926;-73
2022/08/21 20:42:12;;;;;;;;;;;16.90;99.90;;;;;;6218620;23;19942;-74
2022/08/21 20:51:41;;;;;;;;;;;16.80;99.90;;;;;;6123747;23;19983;-74
2022/08/21 20:54:13;;;;;;;;;;;16.80;99.90;;;;;;6075562;23;20304;-76
2022/08/21 20:56:42;;;;;;;;;;;16.70;99.90;;;;;;6176461;23;19994;-68
2022/08/21 20:59:14;;;;;;;;;;;16.60;99.90;;;;;;6221050;23;19915;-68
2022/08/21 21:01:40;;;;;;;;;;;16.60;99.90;;;;;;6221155;23;19920;-69
2022/08/21 21:04:31;;;;;;;;;;;16.60;99.90;;;;;;6247910;23;19947;-69
2022/08/21 21:06:58;;;;;;;;;;;16.60;99.90;;;;;;6195891;23;19915;-68
2022/08/21 21:09:31;;;;;;;;;;;16.60;99.90;;;;;;6220886;23;19916;-69
2022/08/21 21:11:57;;;;;;;;;;;16.60;99.90;;;;;;6247979;23;19928;-69
2022/08/21 21:14:36;;;;;;;;;;;16.60;99.90;;;;;;6221611;23;19915;-67
2022/08/21 21:17:02;;;;;;;;;;;16.50;99.90;;;;;;6221889;23;19969;-68
2022/08/21 21:19:47;;;;;;;;;;;16.50;99.90;;;;;;6171311;23;19920;-68
2022/08/21 21:22:14;;;;;;;;;;;16.60;99.90;;;;;;6222160;23;19926;-69
2022/08/21 21:24:52;;;;;;;;;;;16.60;99.90;;;;;;6221855;23;19926;-68
2022/08/21 21:27:30;;;;;;;;;;;16.60;99.90;;;;;;6221850;23;19920;-68
2022/08/21 21:30:04;;;;;;;;;;;16.50;99.90;;;;;;6222676;23;20013;-69
2022/08/21 21:32:30;;;;;;;;;;;16.50;99.90;;;;;;6222477;23;19920;-68
2022/08/21 21:34:56;;;;;;;;;;;16.50;99.90;;;;;;6252940;23;19923;-68
2022/08/21 21:37:36;;;;;;;;;;;16.50;99.90;;;;;;6200906;23;20011;-68
2022/08/21 21:40:20;;;;;;;;;;;16.50;99.90;;;;;;6251371;23;19927;-67
2022/08/21 21:42:55;;;;;;;;;;;16.50;99.90;;;;;;6226600;23;19973;-68
2022/08/21 21:45:26;;;;;;;;;;;16.40;99.90;;;;;;6221346;23;19951;-68
2022/08/21 21:48:10;;;;;;;;;;;16.40;99.90;;;;;;6195897;23;19927;-68
2022/08/21 21:50:36;;;;;;;;;;;16.40;99.90;;;;;;6221610;23;19928;-69
2022/08/21 21:53:08;;;;;;;;;;;16.40;99.90;;;;;;6247014;23;19958;-69
2022/08/21 21:55:33;;;;;;;;;;;16.40;99.90;;;;;;6221614;23;19920;-70
2022/08/21 21:57:59;;;;;;;;;;;16.30;99.90;;;;;;6248355;22;20278;-69
2022/08/21 22:00:26;;;;;;;;;;;16.20;99.90;;;;;;6221686;23;20215;-68
2022/08/21 22:02:52;;;;;;;;;;;16.20;99.90;;;;;;6221595;23;20242;-70
2022/08/21 22:05:30;;;;;;;;;;;16.10;99.90;;;;;;6221763;23;19951;-68
2022/08/21 22:07:58;;;;;;;;;;;16.10;99.90;;;;;;6246541;23;19923;-69
2022/08/21 22:10:24;;;;;;;;;;;16.10;99.90;;;;;;6221739;23;19998;-69
2022/08/21 22:12:54;;;;;;;;;;;16.20;99.90;;;;;;6221455;23;19927;-68
2022/08/21 22:15:20;;;;;;;;;;;16.20;99.90;;;;;;6221656;23;19926;-69
2022/08/21 22:17:49;;;;;;;;;;;16.20;99.90;;;;;;6220914;23;19982;-68
2022/08/21 22:20:19;;;;;;;;;;;16.20;99.90;;;;;;6221391;23;19998;-69
2022/08/21 22:22:44;;;;;;;;;;;16.20;99.90;;;;;;6248011;23;20293;-68
2022/08/21 22:25:19;;;;;;;;;;;16.20;99.90;;;;;;6196167;23;19919;-69
2022/08/21 22:27:47;;;;;;;;;;;16.20;99.90;;;;;;6221175;23;19927;-68
2022/08/21 22:30:15;;;;;;;;;;;16.30;99.90;;;;;;6196530;23;19942;-68
2022/08/21 22:32:43;;;;;;;;;;;16.30;99.90;;;;;;6220890;23;19919;-68
2022/08/21 22:35:14;;;;;;;;;;;16.30;99.90;;;;;;6221239;23;19920;-68
2022/08/21 22:37:45;;;;;;;;;;;16.30;99.90;;;;;;6221070;23;20388;-69
2022/08/21 22:40:13;;;;;;;;;;;16.30;99.90;;;;;;6196062;23;19920;-69
2022/08/21 22:42:39;;;;;;;;;;;16.30;99.90;;;;;;6196197;23;19958;-68
2022/08/21 22:45:06;;;;;;;;;;;16.20;99.90;;;;;;6221049;23;20242;-69
2022/08/21 22:47:38;;;;;;;;;;;16.30;99.90;;;;;;6221050;23;19919;-68
2022/08/21 22:50:17;;;;;;;;;;;16.30;99.90;;;;;;6221229;23;19957;-67
2022/08/21 22:52:48;;;;;;;;;;;16.30;99.90;;;;;;6220758;23;19994;-69
2022/08/21 22:55:22;;;;;;;;;;;16.30;99.90;;;;;;6196304;23;19919;-69
2022/08/21 22:57:58;;;;;;;;;;;16.30;99.90;;;;;;6220645;23;19920;-67
2022/08/21 23:00:53;;;;;;;;;;;16.30;99.90;;;;;;6221188;23;19919;-69
2022/08/21 23:03:39;;;;;;;;;;;16.20;99.90;;;;;;6195220;23;20388;-69
2022/08/21 23:06:20;;;;;;;;;;;16.20;99.90;;;;;;6196181;23;19920;-68
2022/08/21 23:08:46;;;;;;;;;;;16.20;99.90;;;;;;6195708;23;19919;-69
2022/08/21 23:11:13;;;;;;;;;;;16.20;99.90;;;;;;6220838;23;19955;-68
2022/08/21 23:13:41;;;;;;;;;;;16.20;99.90;;;;;;6196076;23;19920;-68
2022/08/21 23:16:12;;;;;;;;;;;16.20;99.90;;;;;;6220826;23;19924;-69
2022/08/21 23:18:57;;;;;;;;;;;16.20;99.90;;;;;;6194863;23;20247;-68
2022/08/21 23:21:25;;;;;;;;;;;16.20;99.90;;;;;;6195660;23;19919;-68
2022/08/21 23:24:11;;;;;;;;;;;16.20;99.90;;;;;;6220826;23;19927;-67
2022/08/21 23:26:52;;;;;;;;;;;16.20;99.90;;;;;;6185363;22;19924;-68
2022/08/21 23:29:28;;;;;;;;;;;16.20;99.90;;;;;;6220836;23;19923;-68
2022/08/21 23:32:01;;;;;;;;;;;16.30;99.90;;;;;;6220726;23;19951;-68
2022/08/21 23:34:41;;;;;;;;;;;16.30;99.90;;;;;;6247677;23;20015;-70
2022/08/21 23:40:16;;;;;;;;;;;16.30;99.90;;;;;;6247227;23;20297;-68
2022/08/21 23:42:51;;;;;;;;;;;16.20;99.90;;;;;;6220570;23;19919;-69
2022/08/21 23:45:26;;;;;;;;;;;16.20;99.90;;;;;;6195121;23;19924;-68
2022/08/21 23:47:52;;;;;;;;;;;16.20;99.90;;;;;;6195170;23;19920;-68
2022/08/21 23:50:24;;;;;;;;;;;16.20;99.90;;;;;;6246895;23;19926;-68
2022/08/21 23:52:55;;;;;;;;;;;16.30;99.90;;;;;;6245854;23;19927;-69
2022/08/21 23:55:31;;;;;;;;;;;16.20;99.90;;;;;;6220455;23;20357;-69
2022/08/21 23:58:05;;;;;;;;;;;16.30;99.90;;;;;;6247185;22;19927;-70
